Hays, KS

8:33 PM CDT on August 19, 2017 (GMT -0500)
Hays Regional | | Change Station
Active Advisory: Severe Thunderstorm Watch

Elev 1998 ft 38.84 °N, 99.27 °W | Updated 37 minutes ago

Clear
Clear
89 °F
Feels Like 91 °F
N
9
Wind Variable Wind from SSE

Today
High -- | Low -- °F
--% Chance of Precip.
Yesterday
High -- | Low -- °F
Precip. -- in
Pressure 29.79 in
Visibility 10.0 miles
Clouds Clear
Heat Index 91 °F
Dew Point 65 °F
Humidity 45%
Rainfall 0.00 in
Snow Depth Not available.
6:54 AM 8:25 PM
Waning Crescent, 4% visible
METAR KHYS 200056Z AUTO 15008KT 10SM CLR 32/18 A2984 RMK AO2 SLP088 T03170183
Pressure 29.79 in
Visibility 10.0 miles
Clouds Clear
Heat Index 91 °F
Dew Point 65 °F
Humidity 45%
Rainfall 0.00 in
Snow Depth Not available.
6:54 AM 8:25 PM
Waning Crescent, 4% visible
METAR KHYS 200056Z AUTO 15008KT 10SM CLR 32/18 A2984 RMK AO2 SLP088 T03170183

Get Your Daily Forecast Email!

Thanks for signing up!

Be on the lookout for a verification email in your inbox.

You'll start receiving severe weather alerts in your inbox..

×

10-Day Weather Forecast

Almanac

Astronomy

Aug. 19, 2017 Rise Set
Actual Time
Civil Twilight
Nautical Twilight
Astronomical Twilight
Moon
Length of Visible Light
Length of Day
Tomorrow will be .
, % of the Moon is Illuminated

Today's Extremes

State Highs State Lows

Community

WunderPhotos

Category 6

Welcome to Category 6. This is the collective home for Weather Underground's featured writeups by Dr. Jeff Masters (right), Bob Henson (left), Chris Burt, and other regular contributors.

Nearby

Air Quality

  Air Quality AQ Index Pollutant
Not available.

Snow Depth

Station Depth Elevation

Earthquake Activity

City Distance Mag. Time & Date
Minimum magnitude displayed is 2.5.

Coastal Water Temperatures

Place Temperature

Stations

Nearby Weather Stations

Station Location Temp. Windchill Dew Point Humidity Wind Precip. Elev Updated Type
                   

Watches & Warnings

Severe Thunderstorm Watch
Issued: 8:24 PM CDT Aug. 19, 2017 – National Weather Service

Severe Thunderstorm Watch 458 remains in effect until 100 am CDT
for the following locations


KS
. Kansas counties included are

Cheyenne Decatur Ellis
Gove Graham Greeley
Jewell Logan Mitchell
Norton Osborne Phillips
Rawlins Rooks Sheridan
Sherman Smith Thomas
Trego Wallace Wichita